Flight Track Log - Related Links

Times and Time Zones

All times are in EST time to prevent confusion due to time zone crossing. See the OPT438 flight status page for this flight to view local times or setup timezone preferences in your user account.

Time Position Orientation Groundspeed Altitude Reporting Facility
EST Latitude Longitude Course Direction KTS MPH feet Rate Location/Type
Sat 02:03:56 PM 30.1292 -97.5525 90° East 280 322 6,300  Level Houston Center
Sat 02:04:58 PM 30.1697 -97.4622 63° Northeast 306 352 9,700 3,168 Climbing Houston Center
Sat 02:06:01 PM 30.2131 -97.3511 66° East 320 368 12,900 2,544 Climbing Houston Center
Sat 02:07:03 PM 30.2322 -97.2400 79° East 367 422 15,000 1,694 Climbing Houston Center
Sat 02:08:00 PM 30.3323 -96.7931 99° East  Level FlightAware Approximate
Sat 02:08:05 PM 30.2378 -97.1156 87° East 382 440 16,400  Level Houston Center
Sat 02:09:00 PM 30.3167 -96.6700 90° East  Level FlightAware Approximate
Sat 02:09:07 PM 30.2450 -96.9828 86° East 406 467 17,700  Level Houston Center
Sat 02:10:09 PM 30.2514 -96.8467 87° East 418 481 18,800 1,210 Climbing Houston Center
Sat 02:11:11 PM 30.2594 -96.7075 86° East 428 493 20,200 1,403 Climbing Houston Center
Sat 02:12:13 PM 30.2664 -96.5431 87° East 436 502 21,700 1,355 Climbing Houston Center
Sat 02:13:15 PM 30.2731 -96.3997 87° East 442 509 23,000 1,258 Climbing Houston Center
Sat 02:14:17 PM 30.2797 -96.2561 87° East 444 511 24,300 1,248 Climbing Houston Center
Sat 02:15:20 PM 30.2878 -96.1117 86° East 445 512 25,600 1,200 Climbing Houston Center
Sat 02:16:22 PM 30.3350 -95.9883 66° East 435 501 26,800 1,210 Climbing Houston Center
Sat 02:17:24 PM 30.4069 -95.8797 52° Northeast 425 489 28,100 1,403 Climbing Houston Center
Sat 02:18:26 PM 30.4925 -95.7500 53° Northeast 423 487 29,700 1,403 Climbing Houston Center
Sat 02:19:28 PM 30.5647 -95.6425 52° Northeast 422 486 31,000 1,258 Climbing Houston Center
Sat 02:20:30 PM 30.6342 -95.5353 53° Northeast 417 480 32,300 1,258 Climbing Houston Center
Sat 02:21:32 PM 30.7019 -95.4297 53° Northeast 418 481 33,600 1,210 Climbing Houston Center
Sat 02:22:34 PM 30.7719 -95.3219 53° Northeast 418 481 34,800 1,179 Climbing Houston Center
Sat 02:23:24 PM 30.8408 -95.2156 53° Northeast 412 474 35,800 1,071 Climbing Houston Center
Sat 02:24:26 PM 30.9111 -95.1075 53° Northeast 417 480 36,800 581 Climbing Houston Center
Sat 02:25:28 PM 30.9817 -94.9972 53° Northeast 424 488 37,000 96 Climbing Houston Center
Sat 02:26:31 PM 31.0556 -94.8831 53° Northeast 439 505 37,000  Level Houston Center
Sat 02:27:33 PM 31.1300 -94.7664 53° Northeast 451 519 37,000  Level Houston Center
Sat 02:28:35 PM 31.2031 -94.6131 61° Northeast 470 541 37,000  Level Houston Center
Sat 02:29:37 PM 31.2606 -94.4756 64° Northeast 478 550 37,000  Level Houston Center
Sat 02:30:39 PM 31.3172 -94.3339 65° Northeast 481 554 37,000  Level Houston Center
Sat 02:31:41 PM 31.3750 -94.1917 65° Northeast 484 557 37,000 194 Level Houston Center
Sat 02:32:43 PM 31.4325 -94.0494 65° Northeast 484 557 37,400 871 Climbing Houston Center
Sat 02:33:45 PM 31.4975 -93.8875 65° Northeast 463 533 38,800 774 Climbing Houston Center
Sat 02:34:47 PM 31.5506 -93.7558 65° Northeast 449 517 39,000 96 Climbing Houston Center
Sat 02:35:50 PM 31.6028 -93.6214 65° Northeast 453 521 39,000  Level Houston Center
Sat 02:36:52 PM 31.6519 -93.4681 69° East 471 542 39,000  Level Houston Center
Sat 02:37:54 PM 31.6892 -93.3156 74° East 482 555 39,000  Level Houston Center
Sat 02:38:56 PM 31.7272 -93.1603 74° East 485 558 39,000  Level Houston Center
Sat 02:39:58 PM 31.7656 -93.0067 74° East 489 563 39,000  Level Houston Center
Sat 02:41:00 PM 31.8014 -92.8553 74° East 483 556 39,000  Level Houston Center
Sat 02:42:02 PM 31.8381 -92.7017 74° East 485 558 39,000  Level Houston Center
Sat 02:43:04 PM 31.8814 -92.5194 74° East 483 556 39,000  Level Houston Center
Sat 02:44:06 PM 31.9181 -92.3667 74° East 484 557 39,000  Level Houston Center
Sat 02:45:08 PM 31.9550 -92.2158 74° East 481 554 39,000  Level Houston Center
Sat 02:46:11 PM 31.9897 -92.0628 75° East 484 557 39,000  Level Houston Center
Sat 02:47:13 PM 32.0261 -91.9081 74° East 483 556 39,000  Level Houston Center
Sat 02:48:15 PM 32.0622 -91.7564 74° East 481 554 39,000  Level Houston Center
Sat 02:49:17 PM 32.1050 -91.5739 74° East 481 554 39,000  Level Houston Center
Sat 02:50:19 PM 32.1397 -91.4200 75° East 484 557 39,000  Level Houston Center
Sat 02:51:21 PM 32.1758 -91.2661 74° East 487 560 39,000  Level Houston Center
Sat 02:52:23 PM 32.2103 -91.1114 75° East 488 562 39,000  Level Houston Center
Sat 02:53:25 PM 32.2456 -90.9567 75° East 488 562 39,000  Level Houston Center
Sat 02:54:28 PM 32.2856 -90.7781 75° East 489 563 39,000  Level Houston Center
Sat 02:55:30 PM 32.3194 -90.6217 76° East 491 565 39,000  Level Houston Center
Sat 02:56:08 PM 32.3394 -90.5328 75° East 492 566 39,000  Level Memphis Center
Sat 02:57:10 PM 32.3736 -90.3767 75° East 495 570 39,000  Level Memphis Center
Sat 02:58:11 PM 32.4147 -90.1883 75° East 497 572 39,000  Level Memphis Center
Sat 02:59:13 PM 32.4700 -90.0472 65° Northeast 481 554 39,000  Level Memphis Center
Sat 03:00:14 PM 32.5475 -89.9319 51° Northeast 460 529 39,000  Level Memphis Center
Sat 03:01:16 PM 32.6253 -89.8161 51° Northeast 455 524 39,000  Level Memphis Center
Sat 03:02:18 PM 32.7033 -89.7011 51° Northeast 455 524 39,000  Level Memphis Center
Sat 03:03:19 PM 32.7950 -89.5617 52° Northeast 455 524 39,000  Level Memphis Center
Sat 03:04:21 PM 32.8725 -89.4467 51° Northeast 454 522 39,000  Level Memphis Center
Sat 03:05:22 PM 32.9503 -89.3292 52° Northeast 456 525 39,000  Level Memphis Center
Sat 03:06:24 PM 33.0278 -89.2117 52° Northeast 456 525 39,000  Level Memphis Center
Sat 03:07:25 PM 33.1053 -89.0950 52° Northeast 453 521 39,000  Level Memphis Center
Sat 03:08:27 PM 33.1836 -88.9761 52° Northeast 457 526 39,000  Level Memphis Center
Sat 03:09:29 PM 33.2753 -88.8342 52° Northeast 454 522 39,000  Level Memphis Center
Sat 03:10:30 PM 33.3539 -88.7164 51° Northeast 455 524 39,000  Level Memphis Center
Sat 03:11:32 PM 33.4317 -88.5972 52° Northeast 457 526 39,000  Level Memphis Center
Sat 03:12:33 PM 33.5067 -88.4722 54° Northeast 462 532 39,000  Level Memphis Center
Sat 03:13:35 PM 33.5803 -88.3192 60° Northeast 471 542 39,000  Level Memphis Center
Sat 03:14:36 PM 33.6464 -88.1836 60° Northeast 473 544 39,000  Level Memphis Center
Sat 03:15:38 PM 33.7119 -88.0458 60° Northeast 475 547 39,000  Level Memphis Center
Sat 03:16:39 PM 33.7789 -87.9094 59° Northeast 476 548 39,000  Level Memphis Center
Sat 03:17:41 PM 33.8444 -87.7725 60° Northeast 476 548 39,000 -98 Level Memphis Center
Sat 03:18:42 PM 33.9097 -87.6369 60° Northeast 474 545 38,800 -683 Descending Memphis Center
Sat 03:19:44 PM 33.9872 -87.4733 60° Northeast 473 544 37,600 -1,122 Descending Memphis Center
Sat 03:20:45 PM 34.0519 -87.3364 60° Northeast 474 545 36,500 -1,317 Descending Memphis Center
Sat 03:21:47 PM 34.1150 -87.2039 60° Northeast 467 537 34,900 -1,452 Descending Memphis Center
Sat 03:22:49 PM 34.1772 -87.0717 60° Northeast 459 528 33,500 -1,463 Descending Memphis Center
Sat 03:23:50 PM 34.2419 -86.9353 60° Northeast 468 539 31,900 -1,562 Descending Memphis Center
Sat 03:24:02 PM 34.2550 -86.9083 60° Northeast 468 539 31,600 -1,378 Descending Memphis Center
Sat 03:25:04 PM 34.3194 -86.7703 60° Northeast 472 543 30,200 -1,487 Descending Memphis Center
Sat 03:25:59 PM 34.3869 -86.6264 60° Northeast 481 554 28,700 -1,565 Descending Atlanta Center
Sat 03:26:59 PM 34.4544 -86.4850 60° Northeast 489 563 27,200 -1,533 Descending Atlanta Center
Sat 03:28:59 PM 34.5872 -86.1911 61° Northeast 494 568 24,100 -1,533 Descending Atlanta Center
Sat 03:29:59 PM 34.6503 -86.0511 61° Northeast 489 563 22,600 -1,500 Descending Atlanta Center
Sat 03:30:59 PM 34.7150 -85.9164 60° Northeast 476 548 21,100 -1,750 Descending Atlanta Center
Sat 03:31:59 PM 34.7775 -85.7736 62° Northeast 449 517 19,100 -2,750 Descending Atlanta Center
Sat 03:32:59 PM 34.8169 -85.6403 70° East 423 487 15,600 -3,850 Descending Atlanta Center
Sat 03:33:59 PM 34.8456 -85.5117 75° East 404 465 11,400 -3,750 Descending Atlanta Center
Sat 03:34:59 PM 34.8678 -85.4083 75° East 360 414 8,100 -2,300 Descending Atlanta Center
Sat 03:35:59 PM 34.8542 -85.3144 100° East 304 350 6,800 -1,350 Descending Atlanta Center
Sat 03:36:59 PM 34.8756 -85.2592 65° Northeast 227 261 5,400 -1,600 Descending Atlanta Center
Sat 03:37:59 PM 34.9175 -85.2469 13° North 147 169 3,600 -1,550 Descending Atlanta Center
Sat 03:38:59 PM 34.9531 -85.2322 19° North 135 155 2,300 -1,300 Descending Atlanta Center

Login

Don't have an account? Register now (free) for customized features, flight alerts, and more!